KELN/ELN METAR and TAF weather

Enter ICAO airport designator
Station Type Date Time Source
KELN METAR 2021/09/23 16:53 UTC NOAA

KELN 231653Z AUTO 30008KT 10SM CLR 17/06 A3025 RMK AO2 SLP241 T01720056


Station Type Date Time Source
KELN Decoded METAR 2021/09/23 16:53 UTC NOAA

ELLENSBURG BOWERS FIELD, WA, United States (KELN) 47-02N 120-32W 519M
Sep 23, 2021 - 12:53 PM EDT / 2021.09.23 1653 UTC
Wind: from the WNW (300 degrees) at 9 MPH (8 KT):0
Visibility: 10 mile(s):0
Sky conditions: clear
Temperature: 63.0 F (17.2 C)
Dew Point: 42.1 F (5.6 C)
Relative Humidity: 46%
Pressure (altimeter): 30.25 in. Hg (1024 hPa)
ob: KELN 231653Z AUTO 30008KT 10SM CLR 17/06 A3025 RMK AO2 SLP241 T01720056
cycle: 17

Station Type Date Time Source
KELN TAF UTC NOAA

Error!

Example: see airport list